Time;durP1;ratioP1;P1;durP2;ratioP2;P2;SDS_P1;SDS_P2;PMS_P1;PMS_P2;Temp;Humidity;BMP_temperature;BMP_pressure;BME280_temperature;BME280_humidity;BME280_pressure;Samples;Min_cycle;Max_cycle;Signal;HPM_P1;HPM_P2
2023/08/06 00:00:29;;;;;;;7.90;5.10;;;;;;;19.03;100.00;99618.77;105608;1264;97867;-79
2023/08/06 00:03:34;;;;;;;9.60;4.80;;;;;;;19.04;100.00;99604.23;105765;1261;98512;-79
2023/08/06 00:06:19;;;;;;;10.30;5.50;;;;;;;19.05;100.00;99573.01;105962;1265;101418;-79
2023/08/06 00:09:05;;;;;;;7.30;5.20;;;;;;;19.03;100.00;99570.13;105835;1261;99429;-79
2023/08/06 00:11:51;;;;;;;8.20;4.90;;;;;;;18.99;100.00;99583.14;105503;1263;98788;-78
2023/08/06 00:14:36;;;;;;;6.60;5.10;;;;;;;18.97;100.00;99586.05;105204;1263;98733;-78
2023/08/06 00:17:22;;;;;;;14.50;6.20;;;;;;;18.95;100.00;99536.55;105345;1272;98429;-77
2023/08/06 00:20:08;;;;;;;10.90;6.10;;;;;;;18.94;100.00;99506.98;105207;1265;101449;-77
2023/08/06 00:22:53;;;;;;;6.90;5.20;;;;;;;18.92;100.00;99512.30;105308;1265;99098;-77
2023/08/06 00:25:39;;;;;;;8.30;4.60;;;;;;;18.92;100.00;99489.06;105144;1265;97971;-78
2023/08/06 00:28:24;;;;;;;6.70;4.80;;;;;;;18.93;100.00;99461.17;105494;1265;97971;-78
2023/08/06 00:31:10;;;;;;;9.80;5.00;;;;;;;18.94;100.00;99473.43;105166;1264;98629;-78
2023/08/06 00:33:55;;;;;;;7.40;6.10;;;;;;;18.95;100.00;99472.30;105062;1266;101342;-78
2023/08/06 00:36:41;;;;;;;10.40;6.50;;;;;;;18.96;100.00;99457.96;105123;1263;99164;-78
2023/08/06 00:39:26;;;;;;;10.30;6.70;;;;;;;18.94;100.00;99452.59;105287;1261;98474;-78
2023/08/06 00:42:12;;;;;;;8.00;6.70;;;;;;;18.93;100.00;99462.41;105630;1265;98193;-78
2023/08/06 00:44:57;;;;;;;10.50;7.30;;;;;;;18.92;100.00;99447.00;105159;1273;98554;-78
2023/08/06 00:47:45;;;;;;;9.60;7.10;;;;;;;18.91;100.00;99413.19;104973;1259;102696;-78
2023/08/06 00:50:31;;;;;;;8.90;6.60;;;;;;;18.90;100.00;99390.06;105232;1262;99107;-78
2023/08/06 00:53:16;;;;;;;12.30;6.80;;;;;;;18.89;100.00;99378.55;105132;1262;97910;-77
2023/08/06 00:56:02;;;;;;;8.80;7.10;;;;;;;18.89;100.00;99353.65;105100;1265;98112;-78
2023/08/06 00:58:48;;;;;;;9.00;6.70;;;;;;;18.87;100.00;99342.19;105289;1260;97967;-78
2023/08/06 01:01:34;;;;;;;9.90;6.50;;;;;;;18.86;100.00;99326.50;105286;1262;101408;-78
2023/08/06 01:04:19;;;;;;;9.20;7.00;;;;;;;18.84;100.00;99321.58;105126;1261;99280;-78
2023/08/06 01:07:18;;;;;;;7.40;6.30;;;;;;;18.85;100.00;99325.85;105250;1261;99397;-78
2023/08/06 01:10:19;;;;;;;8.80;6.60;;;;;;;18.85;100.00;99331.61;106219;1261;97883;-79
2023/08/06 01:13:27;;;;;;;7.90;6.20;;;;;;;18.85;100.00;99330.59;106348;1262;97974;-79
2023/08/06 01:16:20;;;;;;;7.20;6.20;;;;;;;18.85;100.00;99331.71;106244;1265;101429;-79
2023/08/06 01:19:16;;;;;;;9.30;6.30;;;;;;;18.87;100.00;99324.60;106147;1265;99089;-79
2023/08/06 01:22:01;;;;;;;7.80;6.90;;;;;;;18.87;100.00;99314.36;106296;1266;99714;-79
2023/08/06 01:24:50;;;;;;;10.10;7.30;;;;;;;18.88;100.00;99301.77;106317;1262;98042;-79
2023/08/06 01:27:46;;;;;;;13.30;8.10;;;;;;;18.89;100.00;99290.70;106306;1261;98451;-79
2023/08/06 01:30:37;;;;;;;14.30;9.10;;;;;;;18.90;100.00;99289.17;105803;1261;103281;-80
2023/08/06 01:33:27;;;;;;;9.80;8.40;;;;;;;18.90;100.00;99300.63;105865;1261;100591;-79
2023/08/06 01:36:15;;;;;;;13.40;9.80;;;;;;;18.92;100.00;99305.13;105794;1262;97975;-78
2023/08/06 01:39:00;;;;;;;12.00;9.50;;;;;;;18.96;100.00;99314.09;106079;1264;97987;-78
2023/08/06 01:41:47;;;;;;;12.70;10.20;;;;;;;18.98;100.00;99315.83;105729;1266;98511;-79
2023/08/06 01:44:33;;;;;;;12.00;10.50;;;;;;;19.01;100.00;99316.36;105970;1262;101383;-78
2023/08/06 01:47:19;;;;;;;15.20;11.60;;;;;;;19.04;100.00;99311.31;105752;1261;99287;-78
2023/08/06 01:50:06;;;;;;;13.10;11.20;;;;;;;19.06;100.00;99304.20;105847;1265;98122;-78
2023/08/06 01:52:51;;;;;;;13.50;11.20;;;;;;;19.08;100.00;99295.41;105715;1274;97970;-79
2023/08/06 01:55:38;;;;;;;13.10;11.00;;;;;;;19.09;100.00;99292.52;105754;1264;98874;-78
2023/08/06 01:58:23;;;;;;;17.20;12.20;;;;;;;19.10;100.00;99288.95;105831;1265;101520;-79
2023/08/06 02:01:08;;;;;;;15.00;11.70;;;;;;;19.09;100.00;99285.04;105937;1263;100722;-79
2023/08/06 02:03:54;;;;;;;18.30;12.10;;;;;;;19.11;100.00;99283.45;105832;1262;99010;-79
2023/08/06 02:06:40;;;;;;;15.50;11.70;;;;;;;19.12;100.00;99276.73;105693;1260;97994;-78
2023/08/06 02:09:26;;;;;;;17.60;13.00;;;;;;;19.13;100.00;99277.33;105921;1260;99286;-79
2023/08/06 02:12:12;;;;;;;14.40;12.10;;;;;;;19.14;100.00;99269.93;105841;1260;101271;-79
2023/08/06 02:14:57;;;;;;;14.60;11.90;;;;;;;19.14;100.00;99268.63;105772;1265;99189;-78
2023/08/06 02:17:43;;;;;;;15.10;11.80;;;;;;;19.15;100.00;99266.52;105833;1264;98848;-79
2023/08/06 02:20:28;;;;;;;14.10;12.60;;;;;;;19.16;100.00;99258.75;105771;1263;97955;-79
2023/08/06 02:23:13;;;;;;;17.80;12.00;;;;;;;19.16;100.00;99256.61;105789;1259;95908;-78
2023/08/06 02:26:04;;;;;;;15.10;12.50;;;;;;;19.18;100.00;99252.70;105769;1259;101451;-79
2023/08/06 02:28:50;;;;;;;15.60;13.00;;;;;;;19.20;100.00;99249.44;106320;1263;99707;-79
2023/08/06 02:31:35;;;;;;;17.20;12.30;;;;;;;19.21;100.00;99254.65;105793;1263;97991;-79
2023/08/06 02:34:21;;;;;;;14.50;12.00;;;;;;;19.21;100.00;99263.34;105771;1264;97891;-78
2023/08/06 02:37:06;;;;;;;16.70;12.80;;;;;;;19.22;100.00;99265.73;105920;1264;97977;-79
2023/08/06 02:39:52;;;;;;;20.70;13.00;;;;;;;19.23;100.00;99264.22;105939;1263;101399;-78
2023/08/06 02:42:37;;;;;;;12.80;11.40;;;;;;;19.25;100.00;99264.10;105867;1265;100247;-79
2023/08/06 02:45:23;;;;;;;16.10;12.00;;;;;;;19.27;100.00;99262.96;105769;1264;97858;-78
2023/08/06 02:48:10;;;;;;;16.60;12.80;;;;;;;19.29;100.00;99256.86;105890;1260;97904;-78
2023/08/06 02:50:59;;;;;;;12.90;11.50;;;;;;;19.31;100.00;99245.35;105957;1260;99323;-79
2023/08/06 02:53:45;;;;;;;14.70;11.50;;;;;;;19.32;100.00;99238.67;106549;1267;101335;-79
2023/08/06 02:56:31;;;;;;;16.30;12.80;;;;;;;19.33;100.00;99228.89;106210;1261;99106;-80
2023/08/06 02:59:30;;;;;;;14.10;12.20;;;;;;;19.33;100.00;99224.49;106752;1263;98775;-79
2023/08/06 03:02:22;;;;;;;14.90;12.00;;;;;;;19.35;100.00;99222.40;106759;1263;98003;-79
2023/08/06 03:05:15;;;;;;;14.50;11.50;;;;;;;19.37;100.00;99214.67;106787;1260;99294;-80
2023/08/06 03:08:02;;;;;;;13.60;11.30;;;;;;;19.39;100.00;99214.56;106702;1264;102084;-80
2023/08/06 03:10:49;;;;;;;14.70;12.10;;;;;;;19.39;100.00;99200.65;106743;1260;108475;-80
2023/08/06 03:13:36;;;;;;;14.60;11.60;;;;;;;19.37;100.00;99185.25;106699;1262;98060;-80
2023/08/06 03:16:21;;;;;;;13.70;11.00;;;;;;;19.34;100.00;99167.66;106609;1260;98091;-80
2023/08/06 03:19:07;;;;;;;14.20;11.90;;;;;;;19.32;100.00;99155.04;106663;1263;98582;-80
2023/08/06 03:21:53;;;;;;;14.50;12.50;;;;;;;19.30;100.00;99138.39;106384;1264;102770;-80
2023/08/06 03:24:38;;;;;;;16.50;12.50;;;;;;;19.28;100.00;99130.39;106028;1261;100291;-79
2023/08/06 03:27:24;;;;;;;14.80;12.10;;;;;;;19.25;100.00;99119.79;105873;1260;99001;-79
2023/08/06 03:30:10;;;;;;;17.30;12.80;;;;;;;19.24;100.00;99109.20;107325;1266;95949;-79
2023/08/06 03:32:58;;;;;;;17.70;12.50;;;;;;;19.23;100.00;99097.64;105853;1263;98767;-79
2023/08/06 03:35:43;;;;;;;16.80;12.30;;;;;;;19.22;100.00;99084.02;105813;1263;102303;-79
2023/08/06 03:38:29;;;;;;;19.20;12.60;;;;;;;19.20;100.00;99071.42;105888;1277;100447;-80
2023/08/06 03:41:14;;;;;;;15.60;12.10;;;;;;;19.19;100.00;99061.05;105690;1260;98431;-79
2023/08/06 03:44:02;;;;;;;13.30;11.40;;;;;;;19.17;100.00;99055.32;106023;1261;97971;-79
2023/08/06 03:46:48;;;;;;;13.40;11.90;;;;;;;19.16;100.00;99055.98;105843;1264;99748;-79
2023/08/06 03:49:34;;;;;;;18.30;12.60;;;;;;;19.16;100.00;99061.25;105903;1261;102459;-79
2023/08/06 03:52:19;;;;;;;14.50;12.20;;;;;;;19.16;100.00;99068.63;105904;1264;100075;-79
2023/08/06 03:55:07;;;;;;;18.80;12.60;;;;;;;19.18;100.00;99074.52;106012;1261;99051;-79
2023/08/06 03:57:52;;;;;;;14.10;12.30;;;;;;;19.20;100.00;99076.52;105847;1267;98055;-79
2023/08/06 04:00:39;;;;;;;16.10;12.60;;;;;;;19.22;100.00;99077.09;105854;1264;98493;-78
2023/08/06 04:03:25;;;;;;;17.00;12.70;;;;;;;19.24;100.00;99073.13;105914;1269;102146;-79
2023/08/06 04:06:11;;;;;;;17.30;13.00;;;;;;;19.26;100.00;99063.26;105844;1264;99245;-78
2023/08/06 04:08:57;;;;;;;17.00;12.40;;;;;;;19.28;100.00;99047.16;105867;1263;99150;-78
2023/08/06 04:11:42;;;;;;;14.30;12.80;;;;;;;19.29;100.00;99039.11;106004;1260;98761;-79
2023/08/06 04:14:28;;;;;;;16.80;12.90;;;;;;;19.29;100.00;99033.09;105882;1263;97935;-79
2023/08/06 04:17:16;;;;;;;19.30;14.60;;;;;;;19.30;100.00;99033.41;105867;1261;101357;-79
2023/08/06 04:20:02;;;;;;;18.00;13.80;;;;;;;19.31;100.00;99033.41;105891;1266;100375;-79
2023/08/06 04:22:48;;;;;;;19.30;13.40;;;;;;;19.32;100.00;99029.93;106087;1276;98330;-79
2023/08/06 04:25:33;;;;;;;17.80;13.20;;;;;;;19.33;100.00;99026.34;105698;1260;97964;-78
2023/08/06 04:28:19;;;;;;;23.30;15.20;;;;;;;19.33;100.00;99018.95;105899;1260;98476;-78
2023/08/06 04:31:04;;;;;;;17.70;14.90;;;;;;;19.35;100.00;99013.80;105930;1272;101403;-79
2023/08/06 04:33:51;;;;;;;17.60;13.80;;;;;;;19.37;100.00;99009.89;106088;1261;99760;-79
2023/08/06 04:36:38;;;;;;;20.90;15.50;;;;;;;19.39;100.00;99010.13;105870;1261;98048;-79
2023/08/06 04:39:24;;;;;;;18.30;15.60;;;;;;;19.41;100.00;99010.73;105931;1261;97998;-78
2023/08/06 04:42:10;;;;;;;21.20;15.60;;;;;;;19.43;100.00;99010.12;105836;1261;97921;-79
2023/08/06 04:44:55;;;;;;;24.40;16.70;;;;;;;19.45;100.00;99007.64;105904;1258;101726;-79
2023/08/06 04:47:41;;;;;;;22.20;16.10;;;;;;;19.48;100.00;99003.45;105979;1263;99123;-79
2023/08/06 04:50:27;;;;;;;18.80;16.00;;;;;;;19.49;100.00;99000.24;105875;1260;97977;-78
2023/08/06 04:53:13;;;;;;;22.60;15.90;;;;;;;19.52;100.00;98996.52;105807;1264;97983;-78
2023/08/06 04:55:58;;;;;;;23.30;18.50;;;;;;;19.54;100.00;98995.59;105799;1260;98432;-79
2023/08/06 04:58:44;;;;;;;21.60;17.40;;;;;;;19.56;100.00;98990.36;105858;1264;101414;-79
2023/08/06 05:01:29;;;;;;;24.90;16.30;;;;;;;19.57;100.00;98986.21;105794;1264;99947;-79
2023/08/06 05:04:15;;;;;;;18.90;16.60;;;;;;;19.58;100.00;98981.37;105884;1261;98383;-79
2023/08/06 05:07:01;;;;;;;24.40;17.10;;;;;;;19.59;100.00;98973.21;105805;1264;97963;-79
2023/08/06 05:09:46;;;;;;;18.80;15.70;;;;;;;19.61;100.00;98970.42;105252;1261;97967;-79
2023/08/06 05:12:32;;;;;;;25.90;17.60;;;;;;;19.64;100.00;98969.05;106142;1263;102109;-80
2023/08/06 05:15:18;;;;;;;21.80;18.10;;;;;;;19.67;100.00;98968.09;106235;1263;100133;-79
2023/08/06 05:18:03;;;;;;;23.90;17.30;;;;;;;19.70;100.00;98955.45;106248;1261;97969;-80
2023/08/06 05:20:49;;;;;;;22.80;17.50;;;;;;;19.72;100.00;98946.96;106159;1264;98981;-79
2023/08/06 05:23:35;;;;;;;25.50;18.40;;;;;;;19.75;100.00;98940.73;106390;1264;98690;-79
2023/08/06 05:26:20;;;;;;;22.30;18.80;;;;;;;19.80;100.00;98935.05;106389;1264;102229;-79
2023/08/06 05:29:06;;;;;;;23.10;18.60;;;;;;;19.85;100.00;98935.86;106405;1261;100433;-80
2023/08/06 05:31:51;;;;;;;25.50;18.80;;;;;;;19.90;100.00;98932.11;106398;1260;97883;-79
2023/08/06 05:34:37;;;;;;;24.60;18.40;;;;;;;19.96;100.00;98922.48;106483;1260;98039;-79
2023/08/06 05:37:23;;;;;;;24.80;18.80;;;;;;;20.02;100.00;98917.09;105833;1263;98438;-79
2023/08/06 05:40:08;;;;;;;22.00;17.80;;;;;;;20.07;100.00;98912.15;105795;1260;101472;-78
2023/08/06 05:42:55;;;;;;;22.50;18.70;;;;;;;20.12;100.00;98903.33;105717;1263;107800;-79
2023/08/06 05:45:45;;;;;;;23.40;19.40;;;;;;;20.18;100.00;98899.96;105688;1264;97890;-77
2023/08/06 05:48:31;;;;;;;33.70;20.00;;;;;;;20.25;100.00;98900.28;105552;1261;98116;-79
2023/08/06 05:51:17;;;;;;;24.00;18.40;;;;;;;20.31;100.00;98899.93;105588;1263;97771;-78
2023/08/06 05:54:03;;;;;;;24.00;19.70;;;;;;;20.38;100.00;98902.95;105691;1260;102687;-79
2023/08/06 05:56:48;;;;;;;26.20;19.60;;;;;;;20.44;100.00;98902.31;105578;1260;99170;-79
2023/08/06 05:59:34;;;;;;;20.40;18.20;;;;;;;20.49;100.00;98895.34;105642;1260;98511;-79
2023/08/06 06:02:19;;;;;;;21.30;18.50;;;;;;;20.54;100.00;98897.23;105613;1260;97959;-79
2023/08/06 06:05:05;;;;;;;23.50;20.50;;;;;;;20.59;100.00;98899.34;105577;1261;98499;-78
2023/08/06 06:07:51;;;;;;;23.30;19.00;;;;;;;20.64;100.00;98902.65;105643;1262;101400;-79
2023/08/06 06:10:36;;;;;;;23.30;18.80;;;;;;;20.67;100.00;98896.46;105564;1261;99107;-79
2023/08/06 06:13:22;;;;;;;21.00;18.60;;;;;;;20.70;100.00;98888.14;105628;1261;99056;-78
2023/08/06 06:16:08;;;;;;;24.00;18.80;;;;;;;20.76;100.00;98882.40;105531;1264;96586;-79
2023/08/06 06:18:54;;;;;;;24.90;19.40;;;;;;;20.82;100.00;98877.31;105568;1264;97989;-79
2023/08/06 06:21:40;;;;;;;25.50;18.30;;;;;;;20.88;100.00;98874.77;105720;1264;101423;-79
2023/08/06 06:24:25;;;;;;;23.10;18.10;;;;;;;20.95;100.00;98866.55;105577;1264;99132;-78
2023/08/06 06:27:11;;;;;;;24.00;17.40;;;;;;;21.01;100.00;98861.83;105487;1264;97980;-79
2023/08/06 06:29:57;;;;;;;22.30;18.80;;;;;;;21.09;100.00;98860.85;105580;1261;97995;-79
2023/08/06 06:32:42;;;;;;;27.20;18.90;;;;;;;21.15;100.00;98857.42;105519;1264;97977;-78
2023/08/06 06:35:28;;;;;;;23.40;18.30;;;;;;;21.23;100.00;98851.46;105666;1264;102073;-79
2023/08/06 06:38:13;;;;;;;20.50;17.80;;;;;;;21.29;100.00;98853.55;105628;1260;100589;-79
2023/08/06 06:40:59;;;;;;;20.20;18.20;;;;;;;21.33;100.00;98855.00;105585;1263;98450;-79
2023/08/06 06:43:44;;;;;;;25.70;18.40;;;;;;;21.39;100.00;98857.67;105563;1265;97971;-78
2023/08/06 06:46:30;;;;;;;21.70;18.20;;;;;;;21.46;100.00;98856.89;105690;1264;98407;-78
2023/08/06 06:49:15;;;;;;;21.00;18.80;;;;;;;21.53;100.00;98856.77;105621;1261;101495;-79
2023/08/06 06:52:01;;;;;;;19.50;16.40;;;;;;;21.61;100.00;98848.00;105742;1264;100360;-78
2023/08/06 06:54:47;;;;;;;27.20;17.50;;;;;;;21.70;100.00;98843.33;105812;1260;98480;-78
2023/08/06 06:57:32;;;;;;;18.90;16.80;;;;;;;21.82;100.00;98834.59;105656;1264;97960;-78
2023/08/06 07:00:18;;;;;;;20.20;17.10;;;;;;;21.90;100.00;98827.15;105724;1260;98525;-78
2023/08/06 07:03:03;;;;;;;20.80;18.30;;;;;;;21.92;100.00;98820.71;105797;1259;101479;-78
2023/08/06 07:05:49;;;;;;;24.80;17.80;;;;;;;21.99;100.00;98821.46;105665;1261;99237;-79
2023/08/06 07:08:35;;;;;;;22.10;16.50;;;;;;;22.07;100.00;98822.91;108192;1258;97731;-79
2023/08/06 07:11:20;;;;;;;21.60;17.20;;;;;;;22.12;100.00;98824.73;105689;1264;98003;-79
2023/08/06 07:14:07;;;;;;;18.80;16.80;;;;;;;22.21;100.00;98826.17;105659;1260;97987;-78
2023/08/06 07:16:53;;;;;;;21.30;18.60;;;;;;;22.33;100.00;98828.86;105742;1265;101374;-78
2023/08/06 07:19:38;;;;;;;18.50;16.60;;;;;;;22.46;100.00;98825.36;105772;1264;100336;-78
2023/08/06 07:22:24;;;;;;;17.60;15.60;;;;;;;22.53;100.00;98825.08;105644;1260;97975;-78
2023/08/06 07:25:09;;;;;;;17.80;15.90;;;;;;;22.58;100.00;98826.89;105708;1267;96468;-78
2023/08/06 07:27:56;;;;;;;17.40;15.60;;;;;;;22.61;100.00;98823.34;105736;1263;97912;-78
2023/08/06 07:30:43;;;;;;;19.30;16.30;;;;;;;22.65;100.00;98822.16;105699;1263;102598;-78
2023/08/06 07:33:29;;;;;;;17.00;15.30;;;;;;;22.78;100.00;98820.89;105473;1260;100373;-77
2023/08/06 07:36:15;;;;;;;20.70;15.70;;;;;;;22.92;100.00;98815.08;106222;1261;97954;-79
2023/08/06 07:39:01;;;;;;;18.80;15.00;;;;;;;23.06;100.00;98811.52;106369;1261;98444;-79
2023/08/06 07:41:46;;;;;;;16.80;15.00;;;;;;;23.13;100.00;98808.05;105597;1263;97909;-79
2023/08/06 07:44:32;;;;;;;16.80;14.80;;;;;;;23.16;100.00;98812.02;105543;1262;102689;-78
2023/08/06 07:47:17;;;;;;;20.80;17.10;;;;;;;23.22;100.00;98811.70;105601;1263;99790;-78
2023/08/06 07:50:03;;;;;;;16.20;14.50;;;;;;;23.27;100.00;98809.33;105482;1264;105649;-77
2023/08/06 07:52:49;;;;;;;17.50;15.70;;;;;;;23.29;100.00;98802.95;105564;1264;97977;-77
2023/08/06 07:55:34;;;;;;;17.90;14.90;;;;;;;23.28;100.00;98803.40;105613;1260;99912;-77
2023/08/06 07:58:21;;;;;;;15.60;14.20;;;;;;;23.30;100.00;98803.79;105635;1260;101409;-78
2023/08/06 08:01:07;;;;;;;15.20;13.60;;;;;;;23.32;100.00;98800.42;105692;1263;99691;-78
2023/08/06 08:03:52;;;;;;;16.40;14.80;;;;;;;23.38;100.00;98795.67;105638;1259;99018;-78
2023/08/06 08:06:38;;;;;;;16.40;14.80;;;;;;;23.50;100.00;98794.09;105678;1260;97919;-78
2023/08/06 08:09:23;;;;;;;16.60;14.80;;;;;;;23.63;100.00;98796.42;105727;1260;97860;-78
2023/08/06 08:12:09;;;;;;;19.20;13.90;;;;;;;23.72;100.00;98796.92;105593;1264;101387;-78
2023/08/06 08:14:54;;;;;;;16.60;14.00;;;;;;;23.83;100.00;98801.55;106265;1259;99208;-78
2023/08/06 08:17:40;;;;;;;17.60;14.80;;;;;;;23.89;100.00;98802.23;105617;1262;106302;-79
2023/08/06 08:20:31;;;;;;;20.10;14.00;;;;;;;23.88;100.00;98803.48;105857;1264;97805;-79
2023/08/06 08:23:17;;;;;;;23.00;16.00;;;;;;;23.90;100.00;98799.20;105742;1260;98381;-79
2023/08/06 08:26:03;;;;;;;17.50;13.80;;;;;;;23.97;100.00;98794.47;105732;1260;101406;-79
2023/08/06 08:28:49;;;;;;;14.60;13.10;;;;;;;24.08;100.00;98787.83;105781;1264;99455;-79
2023/08/06 08:31:39;;;;;;;15.80;13.20;;;;;;;24.21;100.00;98788.52;105814;1261;99010;-79
2023/08/06 08:34:24;;;;;;;18.80;14.00;;;;;;;24.29;100.00;98794.75;105742;1263;98052;-78
2023/08/06 08:37:09;;;;;;;15.30;12.90;;;;;;;24.34;100.00;98794.08;105720;1261;97961;-78
2023/08/06 08:39:55;;;;;;;23.00;15.00;;;;;;;24.43;100.00;98788.29;105644;1263;110669;-79
2023/08/06 08:42:42;;;;;;;18.10;13.30;;;;;;;24.48;100.00;98788.05;105703;1264;99277;-78
2023/08/06 08:45:29;;;;;;;19.60;13.00;;;;;;;24.51;100.00;98784.70;105930;1264;98470;-79
2023/08/06 08:48:16;;;;;;;15.80;14.00;;;;;;;24.56;100.00;98783.50;106977;1260;96014;-78
2023/08/06 08:51:02;;;;;;;17.50;13.60;;;;;;;24.62;100.00;98782.34;106642;1258;98486;-78
2023/08/06 08:53:49;;;;;;;21.60;13.80;;;;;;;24.67;100.00;98776.25;105666;1263;102633;-79
2023/08/06 08:56:35;;;;;;;16.10;14.10;;;;;;;24.77;100.00;98766.30;105633;1259;99712;-78
2023/08/06 08:59:20;;;;;;;18.10;13.40;;;;;;;24.89;100.00;98762.63;105614;1259;99440;-78
2023/08/06 09:02:11;;;;;;;15.60;14.10;;;;;;;25.05;100.00;98762.55;105677;1263;97887;-79
2023/08/06 09:05:06;;;;;;;15.10;13.10;;;;;;;25.18;100.00;98763.89;105576;1263;97988;-78
2023/08/06 09:07:52;;;;;;;17.90;14.40;;;;;;;25.24;100.00;98758.91;105438;1260;101427;-78
2023/08/06 09:10:40;;;;;;;15.10;13.40;;;;;;;25.22;100.00;98757.36;105570;1263;99062;-77
2023/08/06 09:13:26;;;;;;;17.20;13.40;;;;;;;25.27;100.00;98751.84;105499;1261;98381;-78
2023/08/06 09:16:11;;;;;;;17.50;13.50;;;;;;;25.32;100.00;98750.31;105399;1264;98854;-78
2023/08/06 09:19:07;;;;;;;16.80;13.60;;;;;;;25.32;100.00;98749.61;105585;1260;98485;-78
2023/08/06 09:21:53;;;;;;;14.80;13.30;;;;;;;25.33;100.00;98742.28;105652;1264;102614;-78
2023/08/06 09:24:40;;;;;;;18.80;12.80;;;;;;;25.38;100.00;98740.48;105370;1260;99646;-78
2023/08/06 09:27:26;;;;;;;15.30;13.80;;;;;;;25.47;100.00;98737.11;105528;1259;97983;-77
2023/08/06 09:30:27;;;;;;;14.70;13.30;;;;;;;25.55;100.00;98734.41;105696;1264;98089;-78
2023/08/06 09:33:17;;;;;;;;;;;;;;;25.63;100.00;98732.00;105642;1264;97964;-77
2023/08/06 09:36:10;;;;;;;13.90;12.60;;;;;;;25.71;100.00;98728.50;105702;1263;102326;-78
2023/08/06 09:38:56;;;;;;;15.10;13.60;;;;;;;25.86;100.00;98724.46;105835;1260;99074;-77
2023/08/06 09:41:42;;;;;;;14.70;13.00;;;;;;;26.01;100.00;98715.10;105683;1260;99880;-78
2023/08/06 09:44:33;;;;;;;16.00;13.30;;;;;;;26.19;100.00;98712.48;105664;1260;97970;-77
2023/08/06 09:47:22;;;;;;;13.40;12.10;;;;;;;26.29;99.92;98714.40;105804;1259;97987;-78
2023/08/06 09:50:18;;;;;;;14.10;12.40;;;;;;;26.37;99.80;98715.81;105479;1261;102084;-77
2023/08/06 09:53:06;;;;;;;15.90;12.30;;;;;;;26.43;99.24;98712.49;104955;1264;99182;-77
2023/08/06 09:55:51;;;;;;;14.30;12.90;;;;;;;26.42;97.83;98709.63;105656;1263;98067;-78
2023/08/06 09:58:38;;;;;;;13.20;11.90;;;;;;;26.41;97.67;98706.69;105697;1259;97904;-79
2023/08/06 10:01:24;;;;;;;13.20;11.90;;;;;;;26.45;98.32;98706.44;105826;1264;97981;-78
2023/08/06 10:04:12;;;;;;;12.80;11.50;;;;;;;26.49;98.02;98700.56;105782;1259;102265;-78
2023/08/06 10:06:59;;;;;;;13.40;12.10;;;;;;;26.51;97.15;98698.11;105766;1263;99220;-78
2023/08/06 10:09:44;;;;;;;15.00;12.00;;;;;;;26.53;96.62;98693.09;105589;1263;99210;-78
2023/08/06 10:12:34;;;;;;;13.70;12.20;;;;;;;26.58;96.57;98693.34;105064;1259;97964;-77
2023/08/06 10:15:30;;;;;;;13.80;11.90;;;;;;;26.61;96.09;98693.38;105078;1260;97974;-77
2023/08/06 10:18:21;;;;;;;13.70;12.30;;;;;;;26.64;95.92;98694.53;105037;1259;102671;-77
2023/08/06 10:21:09;;;;;;;17.00;12.60;;;;;;;26.75;96.57;98693.75;105026;1264;100545;-77
2023/08/06 10:23:54;;;;;;;12.70;11.40;;;;;;;26.89;96.69;98687.98;105612;1264;98000;-78
2023/08/06 10:26:40;;;;;;;14.30;10.80;;;;;;;27.08;96.73;98680.95;105656;1263;98630;-78
2023/08/06 10:29:36;;;;;;;18.00;10.90;;;;;;;27.24;95.48;98671.02;105659;1263;98533;-78
2023/08/06 10:32:22;;;;;;;12.20;11.00;;;;;;;27.34;94.84;98662.36;105621;1259;103037;-78
2023/08/06 10:35:29;;;;;;;13.70;12.10;;;;;;;27.40;94.00;98655.50;105735;1259;99801;-78
2023/08/06 10:38:22;;;;;;;12.60;11.20;;;;;;;27.44;93.51;98653.31;106501;1258;98750;-78
2023/08/06 10:41:07;;;;;;;13.90;10.40;;;;;;;27.44;92.16;98651.77;108068;1259;95357;-78
2023/08/06 10:44:06;;;;;;;12.10;10.30;;;;;;;27.50;92.14;98647.00;108094;1259;95403;-78
2023/08/06 10:46:51;;;;;;;16.70;10.90;;;;;;;27.56;92.33;98638.05;105075;1261;101380;-77
2023/08/06 10:49:36;;;;;;;12.90;11.50;;;;;;;27.57;91.27;98634.23;105555;1262;100362;-79
2023/08/06 10:52:23;;;;;;;11.50;10.20;;;;;;;27.52;91.37;98637.23;105556;1263;98981;-78
2023/08/06 10:55:09;;;;;;;16.40;10.40;;;;;;;27.46;91.48;98624.56;105609;1263;97955;-78
2023/08/06 10:57:55;;;;;;;14.50;11.20;;;;;;;27.36;90.86;98625.00;105725;1258;98524;-78
2023/08/06 11:00:41;;;;;;;11.20;10.10;;;;;;;27.23;89.96;98625.59;105810;1259;102205;-78
2023/08/06 11:03:28;;;;;;;13.10;10.30;;;;;;;27.11;89.41;98614.36;105622;1263;99088;-78
2023/08/06 11:06:20;;;;;;;19.50;10.90;;;;;;;27.03;90.27;98612.83;105414;1263;98952;-78
2023/08/06 11:09:06;;;;;;;15.90;10.40;;;;;;;26.95;90.67;98622.78;108125;1258;95728;-78
2023/08/06 11:11:52;;;;;;;17.50;10.40;;;;;;;26.87;91.37;98634.60;104985;1264;98197;-77
2023/08/06 11:14:38;;;;;;;15.90;10.90;;;;;;;26.76;91.78;98634.77;104982;1259;101358;-77
2023/08/06 11:17:24;;;;;;;14.30;11.40;;;;;;;26.72;93.04;98625.14;105621;1262;99914;-78
2023/08/06 11:20:10;;;;;;;13.60;12.30;;;;;;;26.83;94.33;98612.31;105496;1264;98749;-79
2023/08/06 11:22:55;;;;;;;12.90;11.70;;;;;;;26.99;94.69;98603.52;105627;1263;98354;-79
2023/08/06 11:25:45;;;;;;;12.50;11.30;;;;;;;27.15;94.75;98596.90;105615;1262;99717;-79
2023/08/06 11:28:30;;;;;;;12.20;11.00;;;;;;;27.32;94.25;98594.94;105675;1259;101382;-78
2023/08/06 11:31:23;;;;;;;13.40;10.90;;;;;;;27.51;93.86;98587.08;105605;1258;99217;-78
2023/08/06 11:34:09;;;;;;;14.00;10.90;;;;;;;27.70;93.13;98582.78;105665;1259;98024;-78
2023/08/06 11:36:56;;;;;;;12.40;11.30;;;;;;;27.87;93.16;98575.44;105574;1264;97900;-77
2023/08/06 11:39:47;;;;;;;15.00;10.20;;;;;;;28.05;93.74;98567.48;105545;1259;98531;-78
2023/08/06 11:42:33;;;;;;;10.80;9.10;;;;;;;28.13;91.47;98563.16;105593;1263;103456;-78
2023/08/06 11:45:23;;;;;;;14.60;10.00;;;;;;;28.10;88.18;98555.06;105479;1263;100619;-77
2023/08/06 11:48:08;;;;;;;10.40;9.30;;;;;;;28.12;87.73;98551.27;105157;1259;99008;-77
2023/08/06 11:50:54;;;;;;;10.80;9.80;;;;;;;28.25;86.90;98547.52;105064;1264;97977;-77
2023/08/06 11:53:39;;;;;;;10.80;9.80;;;;;;;28.39;86.20;98545.27;105008;1259;98846;-77
2023/08/06 11:56:26;;;;;;;11.00;9.10;;;;;;;28.51;85.62;98535.61;105071;1261;102634;-77
2023/08/06 11:59:11;;;;;;;12.50;9.80;;;;;;;28.65;85.16;98536.89;105618;1259;100898;-78
2023/08/06 12:01:57;;;;;;;11.90;9.30;;;;;;;28.79;84.51;98526.07;105620;1264;99441;-78
2023/08/06 12:05:04;;;;;;;12.10;10.00;;;;;;;28.94;83.88;98511.31;105646;1258;98828;-78
2023/08/06 12:07:55;;;;;;;12.80;7.50;;;;;;;29.09;82.88;98498.81;105713;1259;98409;-78
2023/08/06 12:10:40;;;;;;;9.00;7.50;;;;;;;29.23;80.46;98500.80;105765;1261;101346;-78
2023/08/06 12:13:26;;;;;;;8.70;6.60;;;;;;;29.31;79.73;98502.11;105604;1259;99145;-78
2023/08/06 12:16:13;;;;;;;8.20;6.40;;;;;;;29.27;77.47;98502.80;105155;1264;98602;-78
2023/08/06 12:18:59;;;;;;;10.00;8.00;;;;;;;29.10;75.45;98511.92;105043;1264;97976;-77
2023/08/06 12:21:44;;;;;;;7.40;6.60;;;;;;;28.89;74.60;98514.42;105002;1261;98453;-78
2023/08/06 12:24:31;;;;;;;7.50;6.70;;;;;;;28.71;74.61;98516.96;105013;1260;101309;-77
2023/08/06 12:27:17;;;;;;;8.90;7.60;;;;;;;28.59;75.28;98509.87;105098;1266;99225;-78
2023/08/06 12:30:04;;;;;;;9.20;7.40;;;;;;;28.47;75.72;98523.95;105073;1264;99171;-78
2023/08/06 12:32:51;;;;;;;8.90;7.50;;;;;;;28.37;75.94;98536.49;104843;1264;99359;-77